Time;durP1;ratioP1;P1;durP2;ratioP2;P2;SDS_P1;SDS_P2;PMS_P1;PMS_P2;Temp;Humidity;BMP_temperature;BMP_pressure;BME280_temperature;BME280_humidity;BME280_pressure;Samples;Min_cycle;Max_cycle;Signal;HPM_P1;HPM_P2
2023/11/20 00:00:58;;;;;;;11.27;4.75;;;;;;;12.51;100.00;100732.09;10372018;28;20129;-69
2023/11/20 00:05:58;;;;;;;7.85;3.75;;;;;;;12.46;100.00;100729.16;10372949;28;20044;-70
2023/11/20 00:10:59;;;;;;;16.63;4.85;;;;;;;12.43;100.00;100732.31;10371673;28;20034;-69
2023/11/20 00:15:59;;;;;;;23.10;6.38;;;;;;;12.44;100.00;100723.09;10374096;28;20141;-69
2023/11/20 00:20:59;;;;;;;28.77;7.07;;;;;;;12.49;100.00;100726.84;10371614;28;20034;-70
2023/11/20 00:26:00;;;;;;;12.63;4.60;;;;;;;12.50;100.00;100733.09;10372234;28;20137;-69
2023/11/20 00:31:00;;;;;;;19.27;6.55;;;;;;;12.51;100.00;100732.91;10371077;28;20037;-70
2023/11/20 00:36:02;;;;;;;16.02;6.13;;;;;;;12.53;100.00;100735.41;10371635;28;20109;-70
2023/11/20 00:41:04;;;;;;;23.92;6.45;;;;;;;12.47;100.00;100726.22;10372034;28;20033;-70
2023/11/20 00:46:04;;;;;;;8.93;4.65;;;;;;;12.28;100.00;100735.25;10373781;28;20090;-70
2023/11/20 00:51:05;;;;;;;10.40;4.68;;;;;;;12.13;100.00;100738.25;10371679;28;20033;-70
2023/11/20 00:56:06;;;;;;;28.00;6.13;;;;;;;12.10;100.00;100739.50;10372196;28;20034;-70
2023/11/20 01:01:06;;;;;;;14.63;5.38;;;;;;;12.16;100.00;100737.00;10371276;28;20026;-70
2023/11/20 01:06:08;;;;;;;11.23;5.75;;;;;;;12.20;100.00;100739.06;10372262;28;20042;-70
2023/11/20 01:11:09;;;;;;;19.08;5.68;;;;;;;12.32;100.00;100752.81;10356730;28;20044;-70
2023/11/20 01:16:09;;;;;;;7.88;4.32;;;;;;;12.08;100.00;100752.44;10370802;28;20439;-70
2023/11/20 01:21:10;;;;;;;18.38;5.90;;;;;;;11.80;100.00;100768.06;10371127;28;20577;-70
2023/11/20 01:26:10;;;;;;;22.58;5.00;;;;;;;11.68;100.00;100767.88;10372268;28;20045;-70
2023/11/20 01:31:10;;;;;;;20.88;5.43;;;;;;;11.64;100.00;100767.44;10356387;28;20109;-69
2023/11/20 01:36:17;;;;;;;23.52;5.63;;;;;;;11.64;100.00;100785.59;10372488;28;20050;-72
2023/11/20 01:41:17;;;;;;;19.38;7.57;;;;;;;11.53;100.00;100781.63;10370633;28;20030;-70
2023/11/20 01:46:18;;;;;;;28.45;6.00;;;;;;;11.45;100.00;100776.38;10377605;28;20478;-70
2023/11/20 01:51:18;;;;;;;19.38;5.88;;;;;;;11.45;100.00;100786.41;10378616;28;20513;-69
2023/11/20 01:56:20;;;;;;;21.08;6.72;;;;;;;11.47;100.00;100787.03;10378502;28;20461;-69
2023/11/20 02:01:22;;;;;;;24.15;5.97;;;;;;;11.47;100.00;100782.44;10379722;28;20045;-70
2023/11/20 02:06:23;;;;;;;26.70;5.55;;;;;;;11.51;100.00;100786.41;10363627;28;20038;-70
2023/11/20 02:11:23;;;;;;;17.08;5.72;;;;;;;11.59;100.00;100785.41;10380937;28;20037;-70
2023/11/20 02:16:24;;;;;;;28.00;6.28;;;;;;;11.64;100.00;100772.84;10360327;28;20042;-70
2023/11/20 02:21:25;;;;;;;26.50;6.35;;;;;;;11.72;100.00;100788.13;10380630;28;20381;-70
2023/11/20 02:26:57;;;;;;;27.42;5.95;;;;;;;11.78;100.00;100779.16;10376772;28;20461;-70
2023/11/20 02:31:57;;;;;;;25.83;6.57;;;;;;;11.84;100.00;100774.78;10377521;28;20152;-70
2023/11/20 02:36:58;;;;;;;19.08;6.93;;;;;;;11.86;100.00;100775.41;10359736;28;20482;-69
2023/11/20 02:42:00;;;;;;;38.55;5.57;;;;;;;11.79;100.00;100780.81;10377442;28;20046;-71
2023/11/20 02:47:00;;;;;;;21.00;5.95;;;;;;;11.77;100.00;100777.47;10374929;28;20046;-70
2023/11/20 02:52:05;;;;;;;22.08;5.60;;;;;;;11.69;100.00;100774.97;10359442;28;20072;-70
2023/11/20 02:57:05;;;;;;;13.30;5.63;;;;;;;11.63;100.00;100786.63;10376746;28;20069;-71
2023/11/20 03:02:06;;;;;;;28.48;6.10;;;;;;;11.73;100.00;100784.34;10375985;28;20029;-70
2023/11/20 03:07:06;;;;;;;24.52;6.57;;;;;;;11.76;100.00;100777.69;10375104;28;20030;-70
2023/11/20 03:12:07;;;;;;;11.50;4.15;;;;;;;11.81;100.00;100783.31;10359847;28;20068;-70
2023/11/20 03:17:08;;;;;;;26.85;5.85;;;;;;;11.82;100.00;100780.38;10375515;28;20030;-70
2023/11/20 03:22:08;;;;;;;15.45;3.88;;;;;;;11.86;100.00;100783.56;10375648;28;20447;-69
2023/11/20 03:27:08;;;;;;;24.08;5.45;;;;;;;11.88;100.00;100781.47;10374994;28;20167;-70
2023/11/20 03:32:09;;;;;;;22.65;4.70;;;;;;;11.91;100.00;100788.38;10375535;28;20041;-70
2023/11/20 03:37:09;;;;;;;35.30;5.60;;;;;;;11.92;100.00;100784.59;10374988;28;20096;-70
2023/11/20 03:42:10;;;;;;;19.83;6.00;;;;;;;11.90;100.00;100790.25;10374405;28;20526;-70
2023/11/20 03:47:11;;;;;;;17.08;5.25;;;;;;;11.94;100.00;100779.81;10373776;28;20075;-70
2023/11/20 03:52:11;;;;;;;18.80;5.53;;;;;;;11.86;100.00;100787.09;10375433;28;20457;-70
2023/11/20 03:57:12;;;;;;;23.45;6.05;;;;;;;11.90;100.00;100778.53;10374252;28;20053;-70
2023/11/20 04:02:12;;;;;;;17.88;4.90;;;;;;;11.87;100.00;100790.66;10374651;28;20026;-70
2023/11/20 04:07:13;;;;;;;35.08;5.45;;;;;;;11.85;100.00;100785.44;10373131;28;20038;-69
2023/11/20 04:12:14;;;;;;;18.85;6.72;;;;;;;11.86;100.00;100789.81;10356781;28;20044;-71
2023/11/20 04:17:14;;;;;;;17.13;6.15;;;;;;;11.77;100.00;100790.19;10373105;28;20465;-70
2023/11/20 04:22:14;;;;;;;14.57;5.65;;;;;;;11.85;100.00;100788.16;10372140;28;20108;-71
2023/11/20 04:27:15;;;;;;;19.40;5.35;;;;;;;11.83;100.00;100782.06;10371356;28;20072;-70
2023/11/20 04:32:16;;;;;;;32.40;5.45;;;;;;;11.81;100.00;100780.63;10371550;28;20184;-71
2023/11/20 04:37:17;;;;;;;18.70;4.22;;;;;;;11.74;100.00;100782.47;10372541;28;20048;-71
2023/11/20 04:42:18;;;;;;;17.52;5.63;;;;;;;11.73;100.00;100778.94;10373327;28;20355;-70
2023/11/20 04:47:18;;;;;;;10.63;5.07;;;;;;;11.75;100.00;100782.28;10371344;28;20046;-70
2023/11/20 04:52:19;;;;;;;19.05;5.50;;;;;;;11.69;100.00;100774.13;10369930;28;20037;-71
2023/11/20 04:57:20;;;;;;;26.92;4.15;;;;;;;11.66;100.00;100779.97;10372382;28;20054;-70
2023/11/20 05:02:21;;;;;;;15.20;5.88;;;;;;;11.53;100.00;100773.50;10371315;28;20030;-70
2023/11/20 05:07:22;;;;;;;15.00;5.53;;;;;;;11.43;100.00;100773.06;10354648;28;20425;-72
2023/11/20 05:12:22;;;;;;;16.13;6.20;;;;;;;11.36;100.00;100770.34;10386523;28;20048;-70
2023/11/20 05:17:23;;;;;;;21.95;4.53;;;;;;;11.33;100.00;100781.59;10370609;28;20436;-71
2023/11/20 05:22:23;;;;;;;18.13;5.38;;;;;;;11.26;100.00;100788.84;10370455;28;20089;-70
2023/11/20 05:27:24;;;;;;;17.88;4.70;;;;;;;11.31;100.00;100790.97;10371240;28;20065;-70
2023/11/20 05:32:24;;;;;;;11.18;4.43;;;;;;;11.44;100.00;100793.72;10371838;28;20489;-70
2023/11/20 05:37:25;;;;;;;30.70;6.82;;;;;;;11.34;100.00;100788.69;10371184;28;20061;-69
2023/11/20 05:42:25;;;;;;;21.67;6.32;;;;;;;11.21;100.00;100793.25;10369295;28;20026;-70
2023/11/20 05:47:26;;;;;;;30.98;6.55;;;;;;;11.16;100.00;100799.25;10354165;28;20479;-71
2023/11/20 05:52:26;;;;;;;17.65;5.60;;;;;;;11.06;100.00;100796.94;10369270;28;20030;-70
2023/11/20 05:57:29;;;;;;;16.25;5.38;;;;;;;11.00;100.00;100792.34;10370897;28;20101;-70
2023/11/20 06:02:30;;;;;;;14.50;5.07;;;;;;;11.10;100.00;100802.78;10369509;28;20034;-70
2023/11/20 06:07:30;;;;;;;19.42;5.95;;;;;;;11.26;100.00;100799.69;10370638;28;20150;-70
2023/11/20 06:12:31;;;;;;;30.90;7.57;;;;;;;11.34;100.00;100796.00;10371334;28;20433;-70
2023/11/20 06:17:31;;;;;;;31.77;6.47;;;;;;;11.28;100.00;100804.94;10354355;28;20241;-69
2023/11/20 06:22:32;;;;;;;16.35;5.65;;;;;;;11.02;100.00;100808.41;10369115;28;20026;-70
2023/11/20 06:27:32;;;;;;;22.33;4.80;;;;;;;10.79;100.00;100806.84;10368888;28;20088;-69
2023/11/20 06:32:32;;;;;;;22.48;5.70;;;;;;;10.54;100.00;100817.34;10359202;28;20462;-69
2023/11/20 06:37:33;;;;;;;20.38;7.45;;;;;;;10.53;100.00;100817.53;10376170;28;20478;-69
2023/11/20 06:42:34;;;;;;;14.45;6.47;;;;;;;10.57;100.00;100816.09;10376233;28;20048;-70
2023/11/20 06:47:34;;;;;;;42.80;7.93;;;;;;;10.64;100.00;100819.69;10377039;28;20122;-69
2023/11/20 06:52:34;;;;;;;27.80;6.25;;;;;;;10.57;100.00;100824.22;10376027;28;20132;-70
2023/11/20 06:57:37;;;;;;;34.78;8.00;;;;;;;10.54;100.00;100833.59;10357668;28;20129;-69
2023/11/20 07:02:42;;;;;;;17.17;7.10;;;;;;;10.66;100.00;100833.88;10373880;28;20105;-70
2023/11/20 07:07:54;;;;;;;17.17;5.60;;;;;;;10.77;100.00;100835.16;10375440;28;20061;-70
2023/11/20 07:12:55;;;;;;;31.25;8.07;;;;;;;10.85;100.00;100835.00;10344549;28;20121;-70
2023/11/20 07:17:55;;;;;;;26.33;7.10;;;;;;;10.61;100.00;100834.44;10373535;28;20392;-70
2023/11/20 07:22:56;;;;;;;31.58;6.07;;;;;;;10.46;100.00;100847.25;10374452;28;20073;-69
2023/11/20 07:27:56;;;;;;;18.75;5.10;;;;;;;10.34;100.00;100840.72;10374326;28;20129;-70
2023/11/20 07:32:57;;;;;;;15.43;5.93;;;;;;;10.25;100.00;100848.13;10373660;28;20038;-69
2023/11/20 07:37:57;;;;;;;13.57;6.72;;;;;;;10.21;100.00;100849.53;10373832;28;20188;-70
2023/11/20 07:42:57;;;;;;;18.42;6.43;;;;;;;10.26;100.00;100860.66;10356225;28;20136;-70
2023/11/20 07:47:59;;;;;;;25.58;5.70;;;;;;;10.51;100.00;100852.09;10373008;28;20495;-70
2023/11/20 07:53:00;;;;;;;15.48;6.97;;;;;;;10.68;100.00;100850.72;10372152;28;20507;-70
2023/11/20 07:58:00;;;;;;;20.27;6.97;;;;;;;10.70;100.00;100852.22;10355902;28;20073;-70
2023/11/20 08:03:00;;;;;;;18.10;7.32;;;;;;;10.62;100.00;100856.94;10372751;28;20164;-71
2023/11/20 08:08:01;;;;;;;26.45;6.18;;;;;;;10.64;100.00;100860.31;10373482;28;20061;-69
2023/11/20 08:13:01;;;;;;;16.85;7.07;;;;;;;10.73;100.00;100856.41;10355028;28;20038;-70
2023/11/20 08:18:02;;;;;;;17.10;5.40;;;;;;;10.75;100.00;100858.91;10371422;28;20034;-69
2023/11/20 08:23:02;;;;;;;0.50;0.50;;;;;;;10.66;100.00;100850.13;10371046;28;20576;-71
2023/11/20 08:28:03;;;;;;;0.50;0.50;;;;;;;10.81;100.00;100860.81;10355319;28;20038;-69
2023/11/20 08:33:03;;;;;;;0.50;0.50;;;;;;;10.90;100.00;100852.31;10371818;28;20415;-69
2023/11/20 08:38:05;;;;;;;0.40;0.40;;;;;;;10.86;100.00;100850.22;10373386;28;20405;-71
2023/11/20 08:43:06;;;;;;;0.40;0.40;;;;;;;10.63;100.00;100845.09;10371894;28;20145;-69
2023/11/20 08:48:08;;;;;;;6.70;2.25;;;;;;;10.59;100.00;100847.38;10372249;28;20187;-71
2023/11/20 08:53:09;;;;;;;0.95;0.95;;;;;;;10.60;100.00;100853.63;10370905;28;20081;-70
2023/11/20 08:58:09;;;;;;;0.40;0.40;;;;;;;10.63;100.00;100847.81;10370437;28;20056;-70
2023/11/20 09:03:11;;;;;;;0.50;0.50;;;;;;;10.62;100.00;100852.34;10369841;28;20071;-70
2023/11/20 09:08:11;;;;;;;2.55;2.35;;;;;;;10.39;100.00;100866.16;10369956;28;20482;-72
2023/11/20 09:13:12;;;;;;;1.38;1.30;;;;;;;10.42;100.00;100876.59;10368561;28;20038;-71
2023/11/20 09:18:12;;;;;;;0.80;0.80;;;;;;;10.41;100.00;100868.69;10370089;28;20048;-71
2023/11/20 09:23:13;;;;;;;4.20;1.88;;;;;;;10.27;100.00;100859.63;10369330;28;20315;-71
2023/11/20 09:28:15;;;;;;;9.85;3.60;;;;;;;10.24;100.00;100857.28;10352183;28;20080;-72
2023/11/20 09:33:15;;;;;;;1.67;1.58;;;;;;;10.23;100.00;100845.59;10369051;28;20461;-72
2023/11/20 09:38:17;;;;;;;0.70;0.70;;;;;;;10.28;100.00;100847.78;10369434;28;20096;-73
2023/11/20 09:43:17;;;;;;;29.25;2.65;;;;;;;10.30;100.00;100837.56;10354316;28;20037;-72
2023/11/20 09:48:18;;;;;;;0.82;0.82;;;;;;;11.93;100.00;100832.38;10369375;28;20113;-73
2023/11/20 09:53:18;;;;;;;0.82;0.82;;;;;;;12.94;100.00;100829.31;10351654;28;20123;-73
2023/11/20 09:58:19;;;;;;;0.60;0.60;;;;;;;12.51;100.00;100821.72;10370785;28;20153;-72
2023/11/20 10:03:20;;;;;;;3.25;2.95;;;;;;;12.05;100.00;100833.44;10367825;28;20073;-72
2023/11/20 10:08:21;;;;;;;0.32;0.32;;;;;;;11.74;100.00;100834.00;10377037;28;20033;-73
2023/11/20 10:13:21;;;;;;;1.58;1.58;;;;;;;11.27;100.00;100833.09;10378876;28;20034;-73
2023/11/20 10:18:22;;;;;;;1.00;1.00;;;;;;;11.72;100.00;100826.09;10376065;28;20037;-73
2023/11/20 10:23:22;;;;;;;0.50;0.50;;;;;;;12.69;100.00;100821.84;10378379;28;20461;-72
2023/11/20 10:28:22;;;;;;;1.67;1.63;;;;;;;13.52;100.00;100804.78;10378798;28;20077;-72
2023/11/20 10:33:23;;;;;;;2.60;2.40;;;;;;;14.29;100.00;100805.41;10360296;28;20034;-72
2023/11/20 10:38:25;;;;;;;0.50;0.50;;;;;;;13.42;100.00;100796.25;10377951;28;20073;-72
2023/11/20 10:43:26;;;;;;;0.40;0.40;;;;;;;13.53;100.00;100802.88;10375613;28;20042;-72
2023/11/20 10:48:33;;;;;;;0.40;0.40;;;;;;;12.90;100.00;100788.13;10358395;28;20077;-72
2023/11/20 10:53:39;;;;;;;0.60;0.60;;;;;;;13.68;100.00;100777.03;10373487;28;20478;-72
2023/11/20 10:58:40;;;;;;;2.50;2.40;;;;;;;13.64;100.00;100786.69;10374139;28;20056;-72
2023/11/20 11:03:40;;;;;;;5.45;4.93;;;;;;;13.65;100.00;100779.34;10357376;28;20034;-72
2023/11/20 11:08:45;;;;;;;3.25;3.05;;;;;;;13.76;100.00;100770.50;10372855;28;20208;-72
2023/11/20 11:13:45;;;;;;;0.43;0.43;;;;;;;13.60;100.00;100771.88;10357283;28;20088;-72
2023/11/20 11:18:48;;;;;;;1.00;1.00;;;;;;;13.45;100.00;100769.47;10357793;28;20029;-72
2023/11/20 11:23:52;;;;;;;25.30;3.65;;;;;;;13.92;100.00;100777.28;10374073;28;20505;-72
2023/11/20 11:28:55;;;;;;;1.60;1.52;;;;;;;13.49;100.00;100775.28;10357471;28;20128;-71
2023/11/20 11:34:28;;;;;;;0.60;0.60;;;;;;;12.64;100.00;100767.34;10373120;28;20045;-71
2023/11/20 11:39:30;;;;;;;0.50;0.50;;;;;;;12.05;100.00;100768.31;10375067;28;20358;-71
2023/11/20 11:44:44;;;;;;;1.67;1.58;;;;;;;11.91;100.00;100777.50;10375553;28;20026;-72
2023/11/20 11:49:51;;;;;;;0.50;0.50;;;;;;;11.97;100.00;100772.06;10372146;28;20042;-72
2023/11/20 11:55:10;;;;;;;0.85;0.85;;;;;;;12.21;100.00;100765.16;10373144;28;20164;-71
2023/11/20 12:00:11;;;;;;;0.50;0.50;;;;;;;12.41;100.00;100766.97;10373421;28;20107;-71
2023/11/20 12:05:12;;;;;;;0.40;0.40;;;;;;;12.50;100.00;100765.72;10373738;28;20465;-71
2023/11/20 12:10:12;;;;;;;2.83;1.85;;;;;;;12.58;100.00;100760.06;10355581;28;20088;-71
2023/11/20 12:15:40;;;;;;;2.45;2.25;;;;;;;12.46;100.00;100756.31;10371378;28;20038;-71
2023/11/20 12:20:54;;;;;;;18.15;4.85;;;;;;;12.44;100.00;100744.81;10373152;28;20076;-71
2023/11/20 12:25:55;;;;;;;24.70;5.22;;;;;;;12.13;100.00;100753.69;10370933;28;20386;-71
2023/11/20 12:30:55;;;;;;;13.20;3.33;;;;;;;12.10;100.00;100744.09;10370594;28;20041;-71
2023/11/20 12:35:57;;;;;;;20.92;4.38;;;;;;;12.49;100.00;100737.72;10371332;28;20042;-71
2023/11/20 12:40:59;;;;;;;15.40;4.72;;;;;;;12.68;100.00;100741.41;10370717;28;20030;-71
2023/11/20 12:46:15;;;;;;;19.98;5.78;;;;;;;12.82;100.00;100739.47;10388236;28;20030;-71
2023/11/20 12:51:17;;;;;;;28.55;7.55;;;;;;;12.29;100.00;100728.81;10370457;28;20176;-71
2023/11/20 12:56:17;;;;;;;8.93;4.97;;;;;;;11.82;100.00;100741.56;10370348;28;20061;-71
2023/11/20 13:01:17;;;;;;;12.00;4.03;;;;;;;11.93;100.00;100732.00;10368864;28;20572;-71
2023/11/20 13:06:18;;;;;;;12.48;4.40;;;;;;;11.83;100.00;100735.09;10353700;28;20476;-71
2023/11/20 13:11:18;;;;;;;4.13;2.97;;;;;;;11.77;100.00;100738.66;10336403;28;20034;-71
2023/11/20 13:16:20;;;;;;;18.98;5.82;;;;;;;11.72;100.00;100738.47;10370136;28;20059;-71
2023/11/20 13:21:24;;;;;;;17.35;4.07;;;;;;;11.54;100.00;100734.47;10353008;28;20516;-71
2023/11/20 13:26:26;;;;;;;12.00;4.40;;;;;;;11.74;100.00;100739.06;10369876;28;20370;-71
2023/11/20 13:31:36;;;;;;;13.60;3.15;;;;;;;11.61;100.00;100734.47;10370170;28;20109;-71
2023/11/20 13:36:37;;;;;;;14.25;3.75;;;;;;;11.94;100.00;100733.69;10353940;28;20066;-71
2023/11/20 13:41:37;;;;;;;6.85;2.67;;;;;;;12.22;100.00;100725.25;10360036;28;20069;-71
2023/11/20 13:46:41;;;;;;;3.03;2.45;;;;;;;12.06;100.00;100718.38;10377563;28;20086;-71
2023/11/20 13:51:43;;;;;;;4.85;2.35;;;;;;;11.70;100.00;100727.78;10361778;28;20430;-71
2023/11/20 13:56:43;;;;;;;10.57;2.60;;;;;;;11.47;100.00;100727.38;10376198;28;20065;-71
2023/11/20 14:01:44;;;;;;;4.22;2.60;;;;;;;11.35;100.00;100730.69;10376620;28;20069;-71
2023/11/20 14:06:44;;;;;;;5.93;2.40;;;;;;;11.18;100.00;100734.84;10377366;28;20042;-71
2023/11/20 14:11:45;;;;;;;3.83;3.15;;;;;;;11.06;100.00;100720.22;10376419;28;20092;-71
2023/11/20 14:16:45;;;;;;;4.85;2.50;;;;;;;10.83;100.00;100713.31;10359536;28;20116;-71
2023/11/20 14:21:46;;;;;;;7.63;3.67;;;;;;;10.83;100.00;100716.00;10377138;28;20029;-71
2023/11/20 14:26:46;;;;;;;13.38;3.50;;;;;;;10.98;100.00;100709.59;10376531;28;20456;-71
2023/11/20 14:31:48;;;;;;;7.38;3.88;;;;;;;10.94;100.00;100717.28;10377416;28;20518;-71
2023/11/20 14:36:49;;;;;;;7.43;3.15;;;;;;;11.00;100.00;100712.91;10392298;28;20042;-71
2023/11/20 14:41:49;;;;;;;8.23;4.10;;;;;;;11.03;100.00;100705.22;10374151;28;20488;-71
2023/11/20 14:46:50;;;;;;;12.20;2.97;;;;;;;10.87;100.00;100701.00;10376549;28;20034;-71
2023/11/20 14:51:50;;;;;;;8.90;4.03;;;;;;;10.63;100.00;100715.13;10373727;28;20046;-71
2023/11/20 14:56:51;;;;;;;8.15;3.65;;;;;;;10.60;100.00;100718.22;10374489;28;20078;-71
2023/11/20 15:01:52;;;;;;;2.92;2.72;;;;;;;10.63;100.00;100734.91;10375775;28;20038;-70
2023/11/20 15:06:52;;;;;;;3.72;2.75;;;;;;;10.50;100.00;100740.25;10375384;28;20034;-71
2023/11/20 15:11:53;;;;;;;4.40;3.47;;;;;;;10.41;100.00;100734.16;10374313;28;20030;-71
2023/11/20 15:16:55;;;;;;;10.43;3.13;;;;;;;10.33;100.00;100737.03;10374242;28;20168;-70
2023/11/20 15:21:56;;;;;;;6.38;3.03;;;;;;;10.20;100.00;100723.41;10373509;28;20121;-71
2023/11/20 15:26:56;;;;;;;7.13;3.03;;;;;;;10.14;100.00;100735.00;10375994;28;20501;-71
2023/11/20 15:31:57;;;;;;;2.40;2.10;;;;;;;10.13;100.00;100730.66;10374006;28;20137;-71
2023/11/20 15:36:57;;;;;;;2.30;2.13;;;;;;;9.98;100.00;100744.28;10373015;28;20049;-71
2023/11/20 15:41:59;;;;;;;14.57;3.22;;;;;;;9.85;100.00;100746.88;10373266;28;20066;-70
2023/11/20 15:46:59;;;;;;;2.97;2.45;;;;;;;9.77;100.00;100753.28;10374227;28;20120;-70
2023/11/20 15:52:02;;;;;;;7.97;3.53;;;;;;;9.72;100.00;100758.44;10372937;28;20128;-71
2023/11/20 15:57:04;;;;;;;3.95;3.40;;;;;;;9.78;100.00;100763.06;10356478;28;20107;-71
2023/11/20 16:02:05;;;;;;;4.25;1.98;;;;;;;9.86;100.00;100762.06;10374600;28;20042;-70
2023/11/20 16:07:06;;;;;;;3.33;2.60;;;;;;;9.92;100.00;100767.56;10372965;28;20461;-71
2023/11/20 16:12:09;;;;;;;5.53;3.92;;;;;;;10.02;100.00;100767.22;10372688;28;20049;-71
2023/11/20 16:17:09;;;;;;;4.15;3.05;;;;;;;10.10;100.00;100766.22;10373699;28;20061;-71
2023/11/20 16:22:10;;;;;;;7.53;2.95;;;;;;;10.11;100.00;100773.28;10354925;28;20493;-71
2023/11/20 16:27:11;;;;;;;10.07;4.07;;;;;;;10.10;100.00;100769.75;10371092;28;20069;-72
2023/11/20 16:32:11;;;;;;;8.20;3.53;;;;;;;10.00;100.00;100778.22;10371860;28;20036;-71
2023/11/20 16:37:12;;;;;;;7.30;4.22;;;;;;;9.87;100.00;100771.88;10353974;28;20136;-71
2023/11/20 16:42:12;;;;;;;13.00;4.72;;;;;;;9.85;100.00;100774.75;10369409;28;20115;-72
2023/11/20 16:47:13;;;;;;;8.13;3.13;;;;;;;9.95;100.00;100780.66;10354100;28;20026;-70
2023/11/20 16:52:13;;;;;;;4.45;2.72;;;;;;;10.05;100.00;100777.66;10369102;28;20065;-71
2023/11/20 16:57:14;;;;;;;4.97;4.22;;;;;;;10.10;100.00;100787.88;10370623;28;20061;-71
2023/11/20 17:02:15;;;;;;;8.55;3.53;;;;;;;10.12;100.00;100785.81;10370437;28;20033;-71
2023/11/20 17:07:21;;;;;;;4.57;3.35;;;;;;;9.98;100.00;100787.56;10370113;28;20038;-71
2023/11/20 17:12:22;;;;;;;9.63;5.07;;;;;;;9.85;100.00;100793.69;10386287;28;20397;-71
2023/11/20 17:17:22;;;;;;;8.90;5.47;;;;;;;9.75;100.00;100794.03;10353797;28;20045;-71
2023/11/20 17:22:23;;;;;;;9.50;3.83;;;;;;;9.61;100.00;100807.66;10371195;28;20088;-70
2023/11/20 17:27:23;;;;;;;5.07;4.57;;;;;;;9.50;100.00;100806.28;10369167;28;20061;-71
2023/11/20 17:32:25;;;;;;;14.23;5.70;;;;;;;9.47;100.00;100812.06;10371003;28;20136;-71
2023/11/20 17:37:25;;;;;;;8.95;4.40;;;;;;;9.53;100.00;100817.53;10371344;28;20041;-71
2023/11/20 17:42:26;;;;;;;8.70;5.32;;;;;;;9.59;100.00;100823.22;10370014;28;20030;-71
2023/11/20 17:47:26;;;;;;;15.25;6.00;;;;;;;9.68;100.00;100825.59;10386119;28;20034;-71
2023/11/20 17:52:28;;;;;;;16.17;7.30;;;;;;;9.75;100.00;100820.25;10369073;28;20033;-71
2023/11/20 17:57:33;;;;;;;8.82;5.40;;;;;;;9.78;100.00;100819.84;10369161;28;20081;-71
2023/11/20 18:02:33;;;;;;;7.10;5.57;;;;;;;9.63;100.00;100829.91;10369081;28;20100;-71
2023/11/20 18:07:36;;;;;;;7.15;5.82;;;;;;;9.32;100.00;100829.19;10371070;28;20425;-71
2023/11/20 18:12:39;;;;;;;10.25;5.95;;;;;;;9.05;100.00;100836.13;10369236;28;20045;-71
2023/11/20 18:17:41;;;;;;;12.05;6.80;;;;;;;8.84;100.00;100844.19;10370226;28;20037;-71
2023/11/20 18:22:46;;;;;;;16.10;5.70;;;;;;;8.72;100.00;100862.72;10384450;28;20403;-71
2023/11/20 18:27:46;;;;;;;13.65;7.43;;;;;;;8.83;100.00;100856.81;10374427;28;20037;-70
2023/11/20 18:32:48;;;;;;;13.40;6.05;;;;;;;8.88;100.00;100850.88;10359725;28;20448;-71
2023/11/20 18:37:48;;;;;;;11.38;7.22;;;;;;;8.79;100.00;100862.78;10375282;28;20342;-71
2023/11/20 18:42:52;;;;;;;13.90;7.22;;;;;;;8.63;100.00;100869.22;10359003;28;20034;-71
2023/11/20 18:47:53;;;;;;;17.08;7.60;;;;;;;8.47;100.00;100878.31;10360525;28;20462;-70
2023/11/20 18:52:54;;;;;;;10.35;7.05;;;;;;;8.36;100.00;100890.38;10376851;28;20037;-70
2023/11/20 18:57:54;;;;;;;12.48;7.18;;;;;;;8.32;100.00;100880.13;10343409;28;20119;-70
2023/11/20 19:02:57;;;;;;;11.55;7.18;;;;;;;8.27;100.00;100893.34;10376638;28;20116;-71
2023/11/20 19:07:57;;;;;;;21.10;7.60;;;;;;;8.23;100.00;100878.53;10376117;28;20044;-70
2023/11/20 19:12:58;;;;;;;16.65;9.43;;;;;;;8.15;100.00;100876.75;10376929;28;20174;-70
2023/11/20 19:18:00;;;;;;;16.33;9.35;;;;;;;8.03;100.00;100883.59;10342778;28;20061;-70
2023/11/20 19:23:01;;;;;;;10.05;6.88;;;;;;;7.96;100.00;100894.25;10372010;28;20054;-71
2023/11/20 19:28:02;;;;;;;10.65;7.05;;;;;;;7.88;100.00;100902.41;10375697;28;20064;-71
2023/11/20 19:33:09;;;;;;;16.00;9.30;;;;;;;7.78;100.00;100901.81;10375806;28;20033;-70
2023/11/20 19:38:09;;;;;;;21.23;9.15;;;;;;;7.68;100.00;100902.03;10377581;28;20140;-70
2023/11/20 19:43:10;;;;;;;16.83;8.20;;;;;;;7.63;100.00;100917.94;10374766;28;20541;-71
2023/11/20 19:48:13;;;;;;;17.88;10.48;;;;;;;7.63;100.00;100918.75;10358042;28;20044;-73
2023/11/20 19:53:13;;;;;;;18.83;8.50;;;;;;;7.65;100.00;100918.56;10372747;28;20136;-70
2023/11/20 19:58:14;;;;;;;17.13;8.68;;;;;;;7.61;100.00;100912.69;10373522;28;20144;-70
2023/11/20 20:03:14;;;;;;;34.53;19.45;;;;;;;7.70;100.00;100926.97;10372580;28;20062;-70
2023/11/20 20:08:16;;;;;;;21.90;10.18;;;;;;;7.85;100.00;100929.75;10372031;28;20133;-70
2023/11/20 20:13:16;;;;;;;19.60;10.75;;;;;;;8.06;100.00;100938.00;10388926;28;20097;-70
2023/11/20 20:18:18;;;;;;;17.25;11.70;;;;;;;8.10;100.00;100933.94;10373019;28;20558;-72
2023/11/20 20:23:20;;;;;;;39.78;21.75;;;;;;;7.94;100.00;100939.44;10373235;28;20145;-70
2023/11/20 20:28:20;;;;;;;23.52;13.30;;;;;;;7.90;100.00;100938.13;10375087;28;20033;-70
2023/11/20 20:33:21;;;;;;;16.63;11.55;;;;;;;8.06;100.00;100951.50;10372179;28;20053;-71
2023/11/20 20:38:22;;;;;;;22.63;13.07;;;;;;;8.06;100.00;100946.09;10371613;28;20068;-70
2023/11/20 20:43:22;;;;;;;18.67;10.63;;;;;;;7.92;100.00;100946.88;10373137;28;20469;-70
2023/11/20 20:48:23;;;;;;;37.05;14.68;;;;;;;7.74;100.00;100957.09;10370891;28;20176;-70
2023/11/20 20:53:23;;;;;;;30.00;11.35;;;;;;;7.58;100.00;100961.56;10354861;28;20041;-70
2023/11/20 20:58:25;;;;;;;17.35;10.00;;;;;;;7.51;100.00;100963.28;10353748;28;20156;-70
2023/11/20 21:03:25;;;;;;;15.80;11.25;;;;;;;7.46;100.00;100971.03;10371914;28;20061;-71
2023/11/20 21:08:26;;;;;;;18.13;10.82;;;;;;;7.50;100.00;100972.41;10371085;28;20428;-71
2023/11/20 21:13:28;;;;;;;13.70;10.10;;;;;;;7.55;100.00;100983.47;10370413;28;20501;-71
2023/11/20 21:18:29;;;;;;;19.17;11.73;;;;;;;7.57;100.00;100986.84;10369647;28;20107;-70
2023/11/20 21:23:30;;;;;;;14.02;11.15;;;;;;;7.43;100.00;100990.25;10371480;28;20076;-72
2023/11/20 21:28:31;;;;;;;16.92;10.82;;;;;;;7.39;100.00;101000.53;10354399;28;20544;-73
2023/11/20 21:33:31;;;;;;;15.95;11.50;;;;;;;7.39;100.00;101010.50;10370612;28;20034;-74
2023/11/20 21:38:32;;;;;;;21.55;12.98;;;;;;;7.32;100.00;101010.34;10370747;28;20100;-70
2023/11/20 21:43:34;;;;;;;20.05;11.13;;;;;;;7.24;100.00;101010.34;10370011;28;20034;-70
2023/11/20 21:48:34;;;;;;;21.40;10.48;;;;;;;7.14;100.00;101004.34;10369889;28;20042;-70
2023/11/20 21:53:35;;;;;;;20.55;10.32;;;;;;;7.09;100.00;101012.09;10371143;28;20094;-70
2023/11/20 21:58:36;;;;;;;15.85;9.05;;;;;;;7.11;100.00;101016.28;10371619;28;20057;-71
2023/11/20 22:03:36;;;;;;;16.17;8.60;;;;;;;7.20;100.00;101019.81;10376732;28;20041;-70
2023/11/20 22:08:42;;;;;;;17.35;8.65;;;;;;;7.18;100.00;101020.00;10376549;28;20438;-70
2023/11/20 22:13:43;;;;;;;16.77;10.33;;;;;;;7.21;100.00;101027.72;10378362;28;20038;-71
2023/11/20 22:18:44;;;;;;;24.60;10.75;;;;;;;7.30;100.00;101030.38;10360860;28;20084;-70
2023/11/20 22:23:45;;;;;;;12.35;8.65;;;;;;;7.53;100.00;101031.34;10376638;28;20441;-71
2023/11/20 22:28:47;;;;;;;17.75;9.50;;;;;;;7.82;100.00;101033.38;10378056;28;20343;-71
2023/11/20 22:33:47;;;;;;;12.95;8.00;;;;;;;7.96;100.00;101034.47;10377284;28;20030;-71
2023/11/20 22:38:48;;;;;;;17.00;8.50;;;;;;;8.03;100.00;101037.31;10377138;28;20093;-71
2023/11/20 22:43:49;;;;;;;12.90;8.68;;;;;;;8.08;100.00;101035.75;10377887;28;20463;-71